createdAt,value
2022-09-17T00:00:19.560Z,1.70
2022-09-17T00:02:25.567Z,3.07
2022-09-17T00:04:29.108Z,2.07
2022-09-17T00:06:33.501Z,2.13
2022-09-17T00:08:40.582Z,2.77
2022-09-17T00:10:45.269Z,3.20
2022-09-17T00:12:48.938Z,2.57
2022-09-17T00:14:51.816Z,3.50
2022-09-17T00:16:59.923Z,3.80
2022-09-17T00:19:05.743Z,3.20
2022-09-17T00:21:09.188Z,2.63
2022-09-17T00:23:13.266Z,3.57
2022-09-17T00:25:17.962Z,2.57
2022-09-17T00:27:20.877Z,2.27
2022-09-17T00:29:24.008Z,2.70
2022-09-17T00:31:28.682Z,3.40
2022-09-17T00:33:31.596Z,3.60
2022-09-17T00:35:34.714Z,4.87
2022-09-17T00:37:37.709Z,3.30
2022-09-17T00:39:40.677Z,4.00
2022-09-17T00:41:45.952Z,4.53
2022-09-17T00:43:51.173Z,4.20
2022-09-17T00:45:54.407Z,5.10
2022-09-17T00:48:00.692Z,5.83
2022-09-17T00:50:06.005Z,6.30
2022-09-17T00:52:11.351Z,6.80
2022-09-17T00:54:14.318Z,6.87
2022-09-17T00:56:22.989Z,7.60
2022-09-17T00:58:27.732Z,8.20
2022-09-17T01:00:31.775Z,8.90
2022-09-17T01:02:35.137Z,9.30
2022-09-17T01:04:38.001Z,8.83
2022-09-17T01:06:44.932Z,8.40
2022-09-17T01:09:03.965Z,8.80
2022-09-17T01:11:29.493Z,8.13
2022-09-17T01:13:42.013Z,9.63
2022-09-17T01:15:51.117Z,7.77
2022-09-17T01:18:09.241Z,7.43
2022-09-17T01:20:29.381Z,6.60
2022-09-17T01:22:35.902Z,5.80
2022-09-17T01:25:01.752Z,7.47
2022-09-17T01:27:25.244Z,5.93
2022-09-17T01:29:39.700Z,4.47
2022-09-17T01:31:47.255Z,5.47
2022-09-17T01:33:56.519Z,4.20
2022-09-17T01:36:12.971Z,5.60
2022-09-17T01:38:23.479Z,4.67
2022-09-17T01:40:29.085Z,5.07
2022-09-17T01:42:36.999Z,4.20
2022-09-17T01:44:46.799Z,3.90
2022-09-17T01:46:53.065Z,3.77
2022-09-17T01:48:59.936Z,3.53
2022-09-17T01:51:12.305Z,3.73
2022-09-17T01:53:19.584Z,4.27
2022-09-17T01:55:25.453Z,4.03
2022-09-17T01:57:32.653Z,4.00
2022-09-17T01:59:38.062Z,4.53
2022-09-17T02:01:42.727Z,3.83
2022-09-17T02:03:51.141Z,4.83
2022-09-17T02:05:57.000Z,3.87
2022-09-17T02:08:03.527Z,4.37
2022-09-17T02:10:09.499Z,4.57
2022-09-17T02:12:17.884Z,4.43
2022-09-17T02:14:24.039Z,4.40
2022-09-17T02:16:28.427Z,4.67
2022-09-17T02:18:36.819Z,5.03
2022-09-17T02:20:44.891Z,6.10
2022-09-17T02:22:51.167Z,6.40
2022-09-17T02:25:02.460Z,6.13
2022-09-17T02:27:08.559Z,6.40
2022-09-17T02:29:18.990Z,6.80
2022-09-17T02:31:22.794Z,6.97
2022-09-17T02:33:26.422Z,7.00
2022-09-17T02:35:29.468Z,7.07
2022-09-17T02:37:33.927Z,8.07
2022-09-17T02:39:36.928Z,8.00
2022-09-17T02:41:47.122Z,7.27
2022-09-17T02:43:56.286Z,7.87
2022-09-17T02:46:11.617Z,9.03
2022-09-17T02:48:26.175Z,8.60
2022-09-17T02:50:38.772Z,9.10
2022-09-17T02:52:50.708Z,7.73
2022-09-17T02:55:01.760Z,8.40
2022-09-17T02:57:09.745Z,7.73
2022-09-17T02:59:18.282Z,6.90
2022-09-17T03:01:26.303Z,7.40
2022-09-17T03:03:33.804Z,7.33
2022-09-17T03:05:37.937Z,7.27
2022-09-17T03:07:41.738Z,7.40
2022-09-17T03:09:46.246Z,6.37
2022-09-17T03:11:49.113Z,7.40
2022-09-17T03:13:52.020Z,6.33
2022-09-17T03:15:55.577Z,7.83
2022-09-17T03:17:58.536Z,5.87
2022-09-17T03:20:01.417Z,5.80
2022-09-17T03:22:04.281Z,5.97
2022-09-17T03:24:08.219Z,7.23
2022-09-17T03:26:12.476Z,5.33
2022-09-17T03:28:15.337Z,5.33
2022-09-17T03:30:18.364Z,5.67
2022-09-17T03:32:21.225Z,5.40
2022-09-17T03:34:24.109Z,6.27
2022-09-17T03:36:27.118Z,4.50
2022-09-17T03:38:30.043Z,5.13
2022-09-17T03:40:32.952Z,5.13
2022-09-17T03:42:37.253Z,5.50
2022-09-17T03:44:44.729Z,4.93
2022-09-17T03:46:48.281Z,4.17
2022-09-17T03:48:51.179Z,4.73
2022-09-17T03:50:54.076Z,5.10
2022-09-17T03:52:56.969Z,4.20
2022-09-17T03:54:59.825Z,4.63
2022-09-17T03:57:02.745Z,4.90
2022-09-17T03:59:07.170Z,4.77
2022-09-17T04:01:10.151Z,4.67
2022-09-17T04:03:13.006Z,3.30
2022-09-17T04:05:15.909Z,4.27
2022-09-17T04:07:18.848Z,4.47
2022-09-17T04:09:21.797Z,4.30
2022-09-17T04:11:24.940Z,4.17
2022-09-17T04:13:27.851Z,4.30
2022-09-17T04:15:32.080Z,4.00
2022-09-17T04:17:35.060Z,3.57
2022-09-17T04:19:38.148Z,3.97
2022-09-17T04:21:41.067Z,3.70
2022-09-17T04:23:43.915Z,2.97
2022-09-17T04:25:46.992Z,3.90
2022-09-17T04:27:49.992Z,3.00
2022-09-17T04:29:52.851Z,3.70
2022-09-17T04:31:57.040Z,3.77
2022-09-17T04:34:00.221Z,3.10
2022-09-17T04:36:06.147Z,3.70
2022-09-17T04:38:10.179Z,3.60
2022-09-17T04:40:13.053Z,3.87
2022-09-17T04:42:16.914Z,3.50
2022-09-17T04:44:19.886Z,4.17
2022-09-17T04:46:22.853Z,3.87
2022-09-17T04:48:27.382Z,3.37
2022-09-17T04:50:30.454Z,3.20
2022-09-17T04:52:34.153Z,4.07
2022-09-17T04:54:37.226Z,4.30
2022-09-17T04:56:40.118Z,2.70
2022-09-17T04:58:43.022Z,3.00
2022-09-17T05:00:48.327Z,3.17
2022-09-17T05:02:52.989Z,4.30
2022-09-17T05:04:59.081Z,3.17
2022-09-17T05:07:02.797Z,3.50
2022-09-17T05:09:05.778Z,3.27
2022-09-17T05:11:08.679Z,2.60
2022-09-17T05:13:12.603Z,2.53
2022-09-17T05:15:15.632Z,3.70
2022-09-17T05:17:20.667Z,3.40
2022-09-17T05:19:23.918Z,2.60
2022-09-17T05:21:28.154Z,2.47
2022-09-17T05:23:30.980Z,2.50
2022-09-17T05:25:33.882Z,3.60
2022-09-17T05:27:36.903Z,3.10
2022-09-17T05:29:39.884Z,2.83
2022-09-17T05:31:42.833Z,2.10
2022-09-17T05:33:45.819Z,2.67
2022-09-17T05:35:48.713Z,3.37
2022-09-17T05:37:53.076Z,2.70
2022-09-17T05:39:56.055Z,2.90
2022-09-17T05:41:59.003Z,3.07
2022-09-17T05:44:01.951Z,2.53
2022-09-17T05:46:07.588Z,2.93
2022-09-17T05:48:13.652Z,3.47
2022-09-17T05:50:16.587Z,3.10
2022-09-17T05:52:19.768Z,3.00
2022-09-17T05:54:24.299Z,3.40
2022-09-17T05:56:27.177Z,2.10
2022-09-17T05:58:30.109Z,3.17
2022-09-17T06:00:32.962Z,2.53
2022-09-17T06:02:35.878Z,3.00
2022-09-17T06:04:38.840Z,2.27
2022-09-17T06:06:41.863Z,2.10
2022-09-17T06:08:44.761Z,2.57
2022-09-17T06:10:49.261Z,2.10
2022-09-17T06:12:57.678Z,2.50
2022-09-17T06:15:00.621Z,2.37
2022-09-17T06:17:03.825Z,2.20
2022-09-17T06:19:06.763Z,2.07
2022-09-17T06:21:10.570Z,2.10
2022-09-17T06:23:15.988Z,1.67
2022-09-17T06:25:19.078Z,2.20
2022-09-17T06:27:23.379Z,2.10
2022-09-17T06:29:26.273Z,2.20
2022-09-17T06:31:29.331Z,2.30
2022-09-17T06:33:32.867Z,2.60
2022-09-17T06:35:35.769Z,1.97
2022-09-17T06:37:40.316Z,2.80
2022-09-17T06:39:43.252Z,2.23
2022-09-17T06:41:46.489Z,2.03
2022-09-17T06:43:55.387Z,2.20
2022-09-17T06:46:00.226Z,2.30
2022-09-17T06:48:05.517Z,1.90
2022-09-17T06:50:08.848Z,1.83
2022-09-17T06:52:11.765Z,1.90
2022-09-17T06:54:14.666Z,1.57
2022-09-17T06:56:17.892Z,2.10
2022-09-17T06:58:20.748Z,1.50
2022-09-17T07:00:25.087Z,2.03
2022-09-17T07:02:28.075Z,2.10
2022-09-17T07:04:31.729Z,1.87
2022-09-17T07:06:34.651Z,2.30
2022-09-17T07:08:38.131Z,2.73
2022-09-17T07:10:41.076Z,1.80
2022-09-17T07:12:49.177Z,1.70
2022-09-17T07:14:52.804Z,2.43
2022-09-17T07:16:57.094Z,1.57
2022-09-17T07:19:00.038Z,1.70
2022-09-17T07:21:07.116Z,1.70
2022-09-17T07:23:09.967Z,2.00
2022-09-17T07:25:15.989Z,2.00
2022-09-17T07:27:19.293Z,2.53
2022-09-17T07:29:23.357Z,2.23
2022-09-17T07:31:26.321Z,2.07
2022-09-17T07:33:30.719Z,1.83
2022-09-17T07:35:33.650Z,1.90
2022-09-17T07:37:36.521Z,2.00
2022-09-17T07:39:39.431Z,1.90
2022-09-17T07:41:42.420Z,1.73
2022-09-17T07:43:45.748Z,1.77
2022-09-17T07:45:48.757Z,1.60
2022-09-17T07:47:51.678Z,1.90
2022-09-17T07:49:56.166Z,1.87
2022-09-17T07:52:00.602Z,1.75
2022-09-17T07:54:03.466Z,2.08
2022-09-17T07:56:11.847Z,1.98
2022-09-17T07:58:15.028Z,1.60
2022-09-17T08:00:18.159Z,2.15
2022-09-17T08:02:24.096Z,1.70
2022-09-17T08:04:27.554Z,1.63
2022-09-17T08:06:32.334Z,1.67
2022-09-17T08:08:35.802Z,2.03
2022-09-17T08:10:39.683Z,2.10
2022-09-17T08:12:44.888Z,2.67
2022-09-17T08:14:47.785Z,2.13
2022-09-17T08:16:50.660Z,1.63
2022-09-17T08:18:56.682Z,2.50
2022-09-17T08:21:00.126Z,2.70
2022-09-17T08:23:04.379Z,2.00
2022-09-17T08:25:08.202Z,2.33
2022-09-17T08:27:11.018Z,2.30
2022-09-17T08:29:14.003Z,2.20
2022-09-17T08:31:20.843Z,2.72
2022-09-17T08:33:23.766Z,1.73
2022-09-17T08:35:28.008Z,2.40
2022-09-17T08:37:31.243Z,2.35
2022-09-17T08:39:35.494Z,2.40
2022-09-17T08:41:47.386Z,2.35
2022-09-17T08:43:56.248Z,2.22
2022-09-17T08:45:59.863Z,2.60
2022-09-17T08:48:05.443Z,1.80
2022-09-17T08:50:13.425Z,2.17
2022-09-17T08:52:41.351Z,1.70
2022-09-17T08:54:51.562Z,2.00
2022-09-17T08:57:05.967Z,2.50
2022-09-17T08:59:19.689Z,1.75
2022-09-17T09:01:32.955Z,1.73
2022-09-17T09:03:45.581Z,2.50
2022-09-17T09:05:50.088Z,1.58
2022-09-17T09:07:56.469Z,1.70
2022-09-17T09:10:07.310Z,2.40
2022-09-17T09:12:14.857Z,1.80
2022-09-17T09:14:21.371Z,1.70
2022-09-17T09:16:26.193Z,2.22
2022-09-17T09:18:32.064Z,1.95
2022-09-17T09:20:42.709Z,2.35
2022-09-17T09:22:50.515Z,1.52
2022-09-17T09:25:03.500Z,2.35
2022-09-17T09:27:16.900Z,2.13
2022-09-17T09:29:26.700Z,2.17
2022-09-17T09:31:39.519Z,1.38
2022-09-17T09:33:47.700Z,2.00
2022-09-17T09:35:51.300Z,1.70
2022-09-17T09:37:58.537Z,1.73
2022-09-17T09:40:06.989Z,1.95
2022-09-17T09:42:14.780Z,1.77
2022-09-17T09:44:17.994Z,2.38
2022-09-17T09:46:53.363Z,1.60
2022-09-17T09:49:06.273Z,1.35
2022-09-17T09:51:17.667Z,1.33
2022-09-17T09:53:25.990Z,1.90
2022-09-17T09:55:41.040Z,1.70
2022-09-17T09:57:45.851Z,1.75
2022-09-17T09:59:48.780Z,1.90
2022-09-17T10:01:52.414Z,1.40
2022-09-17T10:03:58.203Z,1.50
2022-09-17T10:06:06.308Z,1.48
2022-09-17T10:08:13.708Z,1.60
2022-09-17T10:10:16.740Z,1.55
2022-09-17T10:12:21.800Z,1.73
2022-09-17T10:14:26.649Z,1.40
2022-09-17T10:16:31.193Z,1.35
2022-09-17T10:18:34.153Z,1.45
2022-09-17T10:20:37.074Z,1.63
2022-09-17T10:22:40.942Z,1.40
2022-09-17T10:24:43.871Z,1.13
2022-09-17T10:26:46.917Z,1.23
2022-09-17T10:28:52.249Z,0.90
2022-09-17T10:30:59.263Z,1.30
2022-09-17T10:33:23.119Z,1.08
2022-09-17T10:35:28.077Z,1.00
2022-09-17T10:37:43.463Z,1.70
2022-09-17T10:39:48.750Z,1.38
2022-09-17T10:41:55.651Z,1.50
2022-09-17T10:44:18.645Z,0.90
2022-09-17T10:46:27.617Z,1.35
2022-09-17T10:48:34.208Z,0.90
2022-09-17T10:50:37.242Z,1.63
2022-09-17T10:52:42.482Z,1.10
2022-09-17T10:55:02.797Z,0.85
2022-09-17T10:57:06.823Z,1.60
2022-09-17T10:59:27.613Z,0.95
2022-09-17T11:01:40.385Z,1.00
2022-09-17T11:03:50.564Z,1.00
2022-09-17T11:06:12.177Z,0.98
2022-09-17T11:08:21.455Z,1.27
2022-09-17T11:10:29.195Z,1.00
2022-09-17T11:12:43.054Z,0.80
2022-09-17T11:14:51.958Z,1.17
2022-09-17T11:17:06.027Z,1.00
2022-09-17T11:19:18.143Z,1.13
2022-09-17T11:21:30.745Z,1.35
2022-09-17T11:23:47.941Z,1.17
2022-09-17T11:26:00.309Z,1.02
2022-09-17T11:28:09.516Z,1.13
2022-09-17T11:30:19.652Z,0.90
2022-09-17T11:32:38.703Z,0.75
2022-09-17T11:34:45.059Z,1.13
2022-09-17T11:36:53.677Z,1.48
2022-09-17T11:38:58.906Z,1.30
2022-09-17T11:41:07.960Z,0.90
2022-09-17T11:43:19.648Z,0.90
2022-09-17T11:45:28.201Z,1.27
2022-09-17T11:47:34.111Z,1.00
2022-09-17T11:49:40.838Z,0.75
2022-09-17T11:51:47.717Z,1.05
2022-09-17T11:53:52.742Z,0.98
2022-09-17T11:55:58.719Z,0.80
2022-09-17T11:58:06.373Z,0.90
2022-09-17T12:00:15.873Z,1.00
2022-09-17T12:02:24.212Z,1.00
2022-09-17T12:04:39.275Z,1.48
2022-09-17T12:06:48.059Z,1.17
2022-09-17T12:08:55.234Z,1.23
2022-09-17T12:11:02.780Z,1.00
2022-09-17T12:13:15.465Z,0.95
2022-09-17T12:15:21.993Z,0.80
2022-09-17T12:17:31.084Z,1.00
2022-09-17T12:19:37.058Z,0.90
2022-09-17T12:21:43.212Z,0.80
2022-09-17T12:23:50.335Z,1.13
2022-09-17T12:25:56.974Z,0.98
2022-09-17T12:28:02.467Z,0.80
2022-09-17T12:30:11.585Z,0.70
2022-09-17T12:32:33.315Z,0.73
2022-09-17T12:34:44.236Z,0.90
2022-09-17T12:36:52.677Z,1.30
2022-09-17T12:39:16.865Z,1.00
2022-09-17T12:41:21.818Z,0.75
2022-09-17T12:43:43.859Z,1.10
2022-09-17T12:45:55.054Z,0.95
2022-09-17T12:48:21.040Z,1.02
2022-09-17T12:50:32.195Z,0.98
2022-09-17T12:52:44.760Z,1.42
2022-09-17T12:55:13.730Z,1.00
2022-09-17T12:57:26.676Z,1.15
2022-09-17T12:59:31.767Z,0.90
2022-09-17T13:01:38.249Z,1.23
2022-09-17T13:03:46.103Z,0.80
2022-09-17T13:06:22.818Z,2.05
2022-09-17T13:08:46.873Z,0.77
2022-09-17T13:11:13.440Z,0.95
2022-09-17T13:13:27.708Z,0.77
2022-09-17T13:15:58.247Z,1.20
2022-09-17T13:18:27.544Z,1.27
2022-09-17T13:20:36.344Z,1.10
2022-09-17T13:22:46.438Z,1.15
2022-09-17T13:25:03.968Z,1.10
2022-09-17T13:27:07.497Z,0.85
2022-09-17T13:29:11.511Z,1.10
2022-09-17T13:31:15.377Z,0.88
2022-09-17T13:34:05.732Z,1.65
2022-09-17T13:36:38.262Z,0.80
2022-09-17T13:38:42.997Z,0.70
2022-09-17T13:40:46.684Z,0.75
2022-09-17T13:42:51.880Z,0.95
2022-09-17T13:45:04.624Z,1.10
2022-09-17T13:47:21.265Z,0.98
2022-09-17T13:49:24.457Z,1.15
2022-09-17T13:51:53.727Z,1.00
2022-09-17T13:53:58.006Z,1.13
2022-09-17T13:56:05.838Z,0.85
2022-09-17T13:58:10.648Z,1.30
2022-09-17T14:00:54.591Z,1.10
2022-09-17T14:03:37.223Z,1.08
2022-09-17T14:05:40.177Z,1.05
2022-09-17T14:07:48.948Z,1.52
2022-09-17T14:09:54.128Z,1.38
2022-09-17T14:11:57.284Z,1.52
2022-09-17T14:14:41.825Z,1.77
2022-09-17T14:16:50.584Z,0.90
2022-09-17T14:18:59.898Z,1.08
2022-09-17T14:21:20.260Z,1.50
2022-09-17T14:23:23.184Z,1.38
2022-09-17T14:25:33.870Z,1.23
2022-09-17T14:27:54.908Z,1.10
2022-09-17T14:30:12.242Z,1.30
2022-09-17T14:32:20.918Z,1.05
2022-09-17T14:34:26.144Z,1.10
2022-09-17T14:36:29.834Z,1.40
2022-09-17T14:38:35.228Z,1.33
2022-09-17T14:40:43.854Z,1.25
2022-09-17T14:42:48.514Z,1.33
2022-09-17T14:44:58.783Z,1.13
2022-09-17T14:47:03.660Z,1.25
2022-09-17T14:49:22.600Z,1.08
2022-09-17T14:51:29.075Z,1.27
2022-09-17T14:53:32.228Z,1.70
2022-09-17T14:55:35.490Z,1.70
2022-09-17T14:57:39.072Z,0.90
2022-09-17T14:59:52.669Z,1.27
2022-09-17T15:01:55.930Z,0.80
2022-09-17T15:04:24.981Z,0.77
2022-09-17T15:06:28.044Z,0.90
2022-09-17T15:08:30.896Z,1.00
2022-09-17T15:10:36.234Z,1.70
2022-09-17T15:12:39.476Z,1.00
2022-09-17T15:14:42.683Z,1.10
2022-09-17T15:16:49.517Z,1.23
2022-09-17T15:18:54.377Z,1.23
2022-09-17T15:20:59.748Z,0.90
2022-09-17T15:23:10.126Z,1.50
2022-09-17T15:25:17.257Z,1.48
2022-09-17T15:27:25.882Z,1.13
2022-09-17T15:29:31.195Z,1.30
2022-09-17T15:31:34.233Z,1.58
2022-09-17T15:33:37.565Z,2.03
2022-09-17T15:35:41.059Z,1.65
2022-09-17T15:37:55.904Z,1.20
2022-09-17T15:40:14.237Z,1.42
2022-09-17T15:42:26.635Z,1.80
2022-09-17T15:44:32.838Z,1.60
2022-09-17T15:46:36.506Z,2.20
2022-09-17T15:48:41.493Z,1.75
2022-09-17T15:50:53.249Z,2.38
2022-09-17T15:53:13.699Z,1.58
2022-09-17T15:55:30.772Z,1.20
2022-09-17T15:57:33.973Z,1.73
2022-09-17T15:59:36.935Z,1.23
2022-09-17T16:01:55.709Z,1.50
2022-09-17T16:04:19.941Z,1.05
2022-09-17T16:06:39.875Z,1.52
2022-09-17T16:08:44.226Z,1.70
2022-09-17T16:10:47.706Z,2.00
2022-09-17T16:12:51.078Z,1.63
2022-09-17T16:14:55.456Z,1.63
2022-09-17T16:17:00.024Z,1.83
2022-09-17T16:19:03.123Z,1.52
2022-09-17T16:21:11.922Z,1.00
2022-09-17T16:23:15.139Z,1.35
2022-09-17T16:25:24.958Z,1.70
2022-09-17T16:27:30.124Z,1.48
2022-09-17T16:29:32.975Z,1.90
2022-09-17T16:31:36.032Z,0.85
2022-09-17T16:33:39.014Z,1.13
2022-09-17T16:35:42.613Z,1.20
2022-09-17T16:37:45.921Z,1.23
2022-09-17T16:39:49.031Z,0.93
2022-09-17T16:41:53.343Z,1.30
2022-09-17T16:43:57.314Z,1.13
2022-09-17T16:46:00.995Z,1.42
2022-09-17T16:48:04.615Z,1.10
2022-09-17T16:50:09.922Z,1.63
2022-09-17T16:52:12.808Z,1.53
2022-09-17T16:54:15.737Z,1.63
2022-09-17T16:56:18.991Z,1.77
2022-09-17T16:58:23.653Z,1.90
2022-09-17T17:00:27.250Z,2.38
2022-09-17T17:02:30.324Z,2.07
2022-09-17T17:04:33.332Z,1.17
2022-09-17T17:06:36.285Z,1.60
2022-09-17T17:08:39.256Z,1.63
2022-09-17T17:10:42.369Z,1.63
2022-09-17T17:12:45.268Z,1.63
2022-09-17T17:14:52.484Z,1.70
2022-09-17T17:16:55.375Z,1.50
2022-09-17T17:18:58.273Z,1.50
2022-09-17T17:21:08.472Z,1.00
2022-09-17T17:23:11.327Z,1.67
2022-09-17T17:25:15.348Z,1.60
2022-09-17T17:27:18.220Z,1.80
2022-09-17T17:29:21.403Z,1.50
2022-09-17T17:31:25.758Z,1.60
2022-09-17T17:33:28.747Z,1.30
2022-09-17T17:35:31.740Z,1.43
2022-09-17T17:37:34.631Z,1.83
2022-09-17T17:39:37.672Z,2.30
2022-09-17T17:41:40.587Z,1.97
2022-09-17T17:43:43.500Z,3.20
2022-09-17T17:45:47.292Z,1.83
2022-09-17T17:47:53.344Z,2.43
2022-09-17T17:49:56.437Z,1.63
2022-09-17T17:51:59.468Z,1.90
2022-09-17T17:54:02.385Z,1.90
2022-09-17T17:56:08.621Z,1.37
2022-09-17T17:58:11.849Z,2.07
2022-09-17T18:00:16.977Z,1.90
2022-09-17T18:02:20.011Z,1.53
2022-09-17T18:04:24.549Z,1.77
2022-09-17T18:06:28.144Z,2.00
2022-09-17T18:08:32.659Z,1.87
2022-09-17T18:10:35.559Z,1.60
2022-09-17T18:12:38.501Z,1.47
2022-09-17T18:14:41.426Z,1.93
2022-09-17T18:16:44.452Z,1.80
2022-09-17T18:18:48.160Z,1.50
2022-09-17T18:20:54.835Z,3.10
2022-09-17T18:22:57.745Z,1.60
2022-09-17T18:25:00.636Z,1.60
2022-09-17T18:27:03.769Z,1.67
2022-09-17T18:29:08.250Z,2.07
2022-09-17T18:31:18.454Z,2.27
2022-09-17T18:33:23.769Z,1.63
2022-09-17T18:35:27.321Z,2.20
2022-09-17T18:37:31.580Z,1.63
2022-09-17T18:41:57.565Z,1.83
2022-09-17T18:44:00.916Z,2.07
2022-09-17T18:46:07.360Z,1.73
2022-09-17T18:48:11.352Z,2.00
2022-09-17T18:50:14.376Z,2.37
2022-09-17T18:52:17.297Z,2.47
2022-09-17T18:54:21.675Z,2.30
2022-09-17T18:56:26.729Z,1.57
2022-09-17T18:58:29.666Z,2.70
2022-09-17T19:00:32.629Z,1.93
2022-09-17T19:02:35.627Z,2.70
2022-09-17T19:04:38.574Z,2.57
2022-09-17T19:06:42.335Z,2.00
2022-09-17T19:08:46.330Z,2.43
2022-09-17T19:10:52.558Z,2.20
2022-09-17T19:12:55.643Z,1.70
2022-09-17T19:14:58.567Z,1.70
2022-09-17T19:17:01.550Z,1.87
2022-09-17T19:19:04.477Z,2.20
2022-09-17T19:21:12.309Z,2.13
2022-09-17T19:23:15.167Z,1.80
2022-09-17T19:25:20.088Z,1.90
2022-09-17T19:27:24.389Z,2.70
2022-09-17T19:29:27.541Z,2.50
2022-09-17T19:31:30.611Z,1.80
2022-09-17T19:33:33.804Z,2.67
2022-09-17T19:35:36.698Z,2.17
2022-09-17T19:37:39.692Z,2.30
2022-09-17T19:39:42.566Z,2.23
2022-09-17T19:41:45.744Z,2.50
2022-09-17T19:43:52.135Z,1.53
2022-09-17T19:46:02.249Z,3.30
2022-09-17T19:48:05.308Z,2.77
2022-09-17T19:50:08.591Z,2.30
2022-09-17T19:52:11.479Z,3.57
2022-09-17T19:54:14.411Z,1.97
2022-09-17T19:56:19.126Z,2.80
2022-09-17T19:58:22.021Z,1.73
2022-09-17T20:00:26.420Z,2.07
2022-09-17T20:02:29.367Z,1.60
2022-09-17T20:04:32.394Z,2.80
2022-09-17T20:06:35.682Z,2.03
2022-09-17T20:08:44.634Z,2.57
2022-09-17T20:10:50.098Z,2.40
2022-09-17T20:12:53.294Z,2.17
2022-09-17T20:14:56.223Z,2.40
2022-09-17T20:17:00.638Z,1.97
2022-09-17T20:19:04.481Z,1.90
2022-09-17T20:21:08.673Z,2.80
2022-09-17T20:23:11.606Z,2.40
2022-09-17T20:25:14.638Z,3.50
2022-09-17T20:27:18.092Z,2.10
2022-09-17T20:29:20.994Z,1.50
2022-09-17T20:31:26.221Z,1.73
2022-09-17T20:33:31.074Z,2.83
2022-09-17T20:35:36.529Z,2.70
2022-09-17T20:40:02.835Z,3.37
2022-09-17T20:42:06.098Z,1.67
2022-09-17T20:44:09.294Z,2.63
2022-09-17T20:46:13.460Z,2.47
2022-09-17T20:48:16.661Z,2.33
2022-09-17T20:50:20.879Z,2.03
2022-09-17T20:52:23.838Z,2.47
2022-09-17T20:54:26.707Z,3.10
2022-09-17T20:56:31.450Z,2.43
2022-09-17T20:58:36.231Z,2.03
2022-09-17T21:00:42.436Z,2.60
2022-09-17T21:02:50.521Z,2.23
2022-09-17T21:04:54.257Z,3.90
2022-09-17T21:06:58.501Z,2.87
2022-09-17T21:09:01.821Z,3.53
2022-09-17T21:11:07.778Z,2.57
2022-09-17T21:13:13.161Z,2.80
2022-09-17T21:15:16.157Z,1.97
2022-09-17T21:17:19.066Z,2.23
2022-09-17T21:19:24.246Z,2.50
2022-09-17T21:21:27.583Z,2.87
2022-09-17T21:23:35.300Z,2.30
2022-09-17T21:25:38.230Z,2.80
2022-09-17T21:27:41.135Z,1.93
2022-09-17T21:29:44.028Z,2.57
2022-09-17T21:31:47.078Z,2.40
2022-09-17T21:33:53.358Z,2.10
2022-09-17T21:35:56.251Z,2.10
2022-09-17T21:37:59.519Z,2.47
2022-09-17T21:40:04.742Z,3.47
2022-09-17T21:42:07.974Z,2.27
2022-09-17T21:44:11.443Z,2.03
2022-09-17T21:46:16.729Z,2.50
2022-09-17T21:48:19.647Z,2.00
2022-09-17T21:50:22.580Z,2.37
2022-09-17T21:52:25.548Z,2.20
2022-09-17T21:54:28.446Z,2.20
2022-09-17T21:56:33.291Z,2.20
2022-09-17T21:58:36.225Z,2.60
2022-09-17T22:00:39.164Z,1.90
2022-09-17T22:02:42.236Z,2.70
2022-09-17T22:04:45.476Z,2.00
2022-09-17T22:06:49.345Z,1.83
2022-09-17T22:08:53.046Z,2.00
2022-09-17T22:11:01.856Z,2.03
2022-09-17T22:13:09.095Z,2.10
2022-09-17T22:15:12.431Z,1.90
2022-09-17T22:17:15.538Z,2.27
2022-09-17T22:19:20.522Z,1.80
2022-09-17T22:21:27.002Z,2.40
2022-09-17T22:23:29.910Z,2.30
2022-09-17T22:25:33.065Z,2.00
2022-09-17T22:27:36.431Z,2.63
2022-09-17T22:29:40.730Z,1.60
2022-09-17T22:31:43.994Z,1.70
2022-09-17T22:33:48.509Z,2.10
2022-09-17T22:35:51.475Z,2.23
2022-09-17T22:37:54.911Z,2.00
2022-09-17T22:39:57.878Z,2.10
2022-09-17T22:42:00.839Z,2.30
2022-09-17T22:44:05.801Z,1.53
2022-09-17T22:46:14.383Z,2.10
2022-09-17T22:48:17.351Z,1.70
2022-09-17T22:50:20.610Z,1.97
2022-09-17T22:52:23.452Z,1.90
2022-09-17T22:54:26.368Z,1.93
2022-09-17T22:56:30.117Z,2.33
2022-09-17T22:58:33.263Z,1.80
2022-09-17T23:00:36.460Z,2.30
2022-09-17T23:02:40.781Z,2.17
2022-09-17T23:04:44.263Z,1.60
2022-09-17T23:06:47.233Z,1.60
2022-09-17T23:08:50.243Z,1.17
2022-09-17T23:10:53.197Z,1.53
2022-09-17T23:12:56.120Z,2.03
2022-09-17T23:14:59.709Z,2.00
2022-09-17T23:17:02.826Z,1.70
2022-09-17T23:19:07.256Z,2.00
2022-09-17T23:21:14.006Z,2.23
2022-09-17T23:23:19.487Z,1.70
2022-09-17T23:25:24.687Z,1.87
2022-09-17T23:27:27.795Z,1.93
2022-09-17T23:29:30.684Z,1.97
2022-09-17T23:31:35.487Z,1.53
2022-09-17T23:33:38.797Z,1.80
2022-09-17T23:35:43.129Z,1.80
2022-09-17T23:37:46.008Z,2.17
2022-09-17T23:39:49.017Z,1.60
2022-09-17T23:41:51.907Z,2.23
2022-09-17T23:43:56.368Z,1.70
2022-09-17T23:45:59.317Z,1.47
2022-09-17T23:48:02.545Z,1.40
2022-09-17T23:50:06.319Z,2.10
2022-09-17T23:52:10.615Z,1.80
2022-09-17T23:54:13.541Z,2.30
2022-09-17T23:56:18.072Z,1.40
2022-09-17T23:58:21.008Z,1.70
